Time;durP1;ratioP1;P1;durP2;ratioP2;P2;SDS_P1;SDS_P2;PMS_P1;PMS_P2;Temp;Humidity;BMP_temperature;BMP_pressure;BME280_temperature;BME280_humidity;BME280_pressure;Samples;Min_cycle;Max_cycle;Signal;HPM_P1;HPM_P2
2022/06/16 00:00:06;;;;;;;1099.90;999.17;;;13.70;71.00;;;;;;4955373;28;20309;-67
2022/06/16 00:02:31;;;;;;;1077.97;969.60;;;13.70;71.10;;;;;;4986793;28;20316;-67
2022/06/16 00:04:57;;;;;;;1103.30;998.90;;;13.70;71.20;;;;;;4983947;28;20306;-67
2022/06/16 00:07:23;;;;;;;1109.33;999.47;;;13.70;71.20;;;;;;4986343;28;20511;-67
2022/06/16 00:09:49;;;;;;;1073.07;973.73;;;13.70;71.40;;;;;;4984505;28;20365;-67
2022/06/16 00:12:15;;;;;;;1070.70;974.03;;;13.60;71.50;;;;;;4969907;28;20488;-67
2022/06/16 00:14:41;;;;;;;1068.47;970.73;;;13.60;71.50;;;;;;4966453;28;20345;-67
2022/06/16 00:17:07;;;;;;;1087.40;991.13;;;13.60;71.80;;;;;;4980485;28;20301;-67
2022/06/16 00:19:33;;;;;;;1061.00;964.27;;;13.60;71.60;;;;;;4969048;28;20313;-67
2022/06/16 00:21:59;;;;;;;1072.43;974.37;;;13.60;71.50;;;;;;4976161;28;20038;-67
2022/06/16 00:24:27;;;;;;;1077.53;978.20;;;13.60;71.60;;;;;;4972753;28;20069;-67
2022/06/16 00:26:55;;;;;;;1109.70;999.87;;;13.60;71.50;;;;;;4979939;28;20293;-67
2022/06/16 00:29:22;;;;;;;1076.70;978.70;;;13.60;71.70;;;;;;4970653;28;20301;-67
2022/06/16 00:31:47;;;;;;;1070.37;971.13;;;13.60;71.70;;;;;;4953526;28;20302;-67
2022/06/16 00:34:13;;;;;;;1075.33;976.83;;;13.60;71.50;;;;;;4954852;28;20316;-67
2022/06/16 00:36:39;;;;;;;1116.60;999.90;;;13.70;71.50;;;;;;4963101;28;20081;-67
2022/06/16 00:39:05;;;;;;;1092.20;989.90;;;13.70;71.40;;;;;;4986811;28;20833;-67
2022/06/16 00:41:31;;;;;;;1094.07;994.70;;;13.70;71.80;;;;;;4981201;28;20042;-67
2022/06/16 00:44:01;;;;;;;1092.73;989.50;;;13.70;71.80;;;;;;4967440;28;20121;-67
2022/06/16 00:46:29;;;;;;;1115.13;999.90;;;13.70;71.70;;;;;;4984675;28;20130;-67
2022/06/16 00:48:58;;;;;;;1113.53;999.90;;;13.70;71.80;;;;;;4955198;28;20670;-67
2022/06/16 00:51:38;;;;;;;1077.73;975.90;;;13.70;71.70;;;;;;4984997;28;20297;-67
2022/06/16 00:54:26;;;;;;;1120.40;999.90;;;13.70;71.60;;;;;;4984713;28;20313;-67
2022/06/16 00:56:56;;;;;;;1102.33;997.60;;;13.70;71.70;;;;;;4958037;28;20887;-67
2022/06/16 00:59:23;;;;;;;1108.60;999.90;;;13.70;71.60;;;;;;4983469;28;20359;-67
2022/06/16 01:01:50;;;;;;;1123.60;999.90;;;13.70;71.60;;;;;;4982934;28;20309;-67
2022/06/16 01:07:09;;;;;;;1054.07;954.75;;;13.70;71.60;;;;;;4983735;28;20348;-67
2022/06/16 01:09:37;;;;;;;1045.90;950.88;;;13.70;71.50;;;;;;5000318;28;20245;-67
2022/06/16 01:15:19;;;;;;;1064.53;968.13;;;13.70;71.50;;;;;;4978839;28;20356;-67
2022/06/16 01:18:07;;;;;;;1102.60;998.37;;;13.70;71.50;;;;;;4984093;28;20316;-67
2022/06/16 01:20:58;;;;;;;1103.80;999.90;;;13.70;71.40;;;;;;4976438;28;20290;-67
2022/06/16 01:23:59;;;;;;;1098.87;998.80;;;13.70;71.30;;;;;;4981888;28;20301;-67
2022/06/16 01:26:49;;;;;;;1060.10;961.07;;;13.70;71.20;;;;;;4968890;28;20806;-67
2022/06/16 01:29:27;;;;;;;1108.50;998.83;;;13.70;71.40;;;;;;4968578;28;20667;-67
2022/06/16 01:31:56;;;;;;;1098.17;996.73;;;13.60;71.60;;;;;;4981123;28;20301;-67
2022/06/16 01:34:56;;;;;;;1086.77;983.47;;;13.60;71.50;;;;;;4985403;28;20643;-67
2022/06/16 01:37:49;;;;;;;1090.53;988.90;;;13.70;72.10;;;;;;4980390;28;20370;-67
2022/06/16 01:40:37;;;;;;;1076.80;981.47;;;13.60;71.50;;;;;;4992813;28;20297;-67
2022/06/16 01:43:18;;;;;;;1102.60;998.60;;;13.60;71.10;;;;;;4967163;28;20309;-67
2022/06/16 01:46:08;;;;;;;1115.93;999.90;;;13.60;71.10;;;;;;4983405;28;20301;-67
2022/06/16 01:48:36;;;;;;;1047.13;955.47;;;13.50;70.60;;;;;;4984595;28;20723;-67
2022/06/16 01:51:09;;;;;;;1070.10;973.23;;;13.50;70.10;;;;;;4984196;28;20301;-67
2022/06/16 01:53:52;;;;;;;1084.23;986.13;;;13.50;70.10;;;;;;4968542;28;20305;-67
2022/06/16 01:56:20;;;;;;;1095.27;996.47;;;13.40;70.10;;;;;;4975480;28;20785;-67
2022/06/16 01:58:53;;;;;;;1088.90;989.37;;;13.40;70.30;;;;;;4982219;28;20296;-67
2022/06/16 02:01:21;;;;;;;1080.33;978.83;;;13.40;70.40;;;;;;4962231;28;20313;-67
2022/06/16 02:03:54;;;;;;;1084.03;980.33;;;13.40;70.30;;;;;;4984036;28;20333;-67
2022/06/16 02:06:25;;;;;;;1109.80;997.80;;;13.30;70.60;;;;;;4982188;28;20316;-67
2022/06/16 02:08:56;;;;;;;1089.77;988.53;;;13.30;70.80;;;;;;4982296;28;20376;-67
2022/06/16 02:11:32;;;;;;;1064.33;968.43;;;13.30;71.00;;;;;;4979658;28;20298;-67
2022/06/16 02:14:36;;;;;;;1086.20;987.83;;;13.20;71.40;;;;;;4984526;28;20305;-67
2022/06/16 02:17:03;;;;;;;1066.80;973.27;;;13.20;71.40;;;;;;4970755;28;20655;-67
2022/06/16 02:19:29;;;;;;;1086.70;992.67;;;13.20;71.60;;;;;;4980314;28;20345;-67
2022/06/16 02:21:56;;;;;;;1071.33;975.57;;;13.20;71.40;;;;;;4983398;28;20297;-67
2022/06/16 02:24:25;;;;;;;1047.77;952.80;;;13.20;71.60;;;;;;4964679;28;20506;-67
2022/06/16 02:26:54;;;;;;;1064.97;970.43;;;13.20;71.60;;;;;;4977513;28;20697;-67
2022/06/16 02:29:37;;;;;;;1047.17;954.03;;;13.20;71.40;;;;;;4965994;28;20309;-67
2022/06/16 02:32:37;;;;;;;1053.13;962.17;;;13.10;71.40;;;;;;4982054;28;20793;-67
2022/06/16 02:35:36;;;;;;;1027.60;939.97;;;13.10;71.50;;;;;;4976339;28;20305;-67
2022/06/16 02:38:08;;;;;;;1080.17;986.57;;;13.00;71.50;;;;;;4965010;28;20817;-67
2022/06/16 02:40:53;;;;;;;1041.70;954.70;;;12.90;71.40;;;;;;4967072;28;20710;-67
2022/06/16 02:44:03;;;;;;;1061.50;969.85;;;12.80;71.50;;;;;;4993091;28;20337;-67
2022/06/16 02:47:03;;;;;;;1054.60;964.70;;;12.70;72.40;;;;;;4937089;28;20578;-67
2022/06/16 02:49:48;;;;;;;1042.53;957.07;;;12.60;72.30;;;;;;4923937;29;20894;-67
2022/06/16 02:52:43;;;;;;;1031.95;945.50;;;12.50;72.40;;;;;;4969080;28;20310;-67
2022/06/16 02:55:25;;;;;;;1008.67;925.07;;;12.40;72.60;;;;;;4984578;28;20058;-67
2022/06/16 02:57:57;;;;;;;1031.75;945.65;;;12.30;73.00;;;;;;4981793;28;20386;-67
2022/06/16 03:00:29;;;;;;;1028.45;945.85;;;12.20;73.00;;;;;;4981492;28;20070;-67
2022/06/16 03:02:55;;;;;;;1027.15;940.78;;;12.10;73.20;;;;;;4979780;28;20058;-67
2022/06/16 03:05:20;;;;;;;1050.73;963.13;;;12.10;75.20;;;;;;4981238;28;20396;-67
2022/06/16 03:07:46;;;;;;;1046.27;958.27;;;12.00;75.30;;;;;;4981658;28;20041;-67
2022/06/16 03:10:50;;;;;;;1033.00;947.63;;;12.00;75.40;;;;;;4981154;28;20043;-67
2022/06/16 03:13:04;;;;;;;1029.55;946.50;;;11.90;76.00;;;;;;4979143;28;20059;-67
2022/06/16 03:15:30;;;;;;;1031.70;947.67;;;11.90;76.70;;;;;;4981727;28;20068;-67
2022/06/16 03:17:56;;;;;;;1019.03;934.50;;;11.80;78.10;;;;;;4981523;28;20034;-67
2022/06/16 03:20:21;;;;;;;1023.93;937.93;;;11.80;77.70;;;;;;4962363;28;20050;-67
2022/06/16 03:22:47;;;;;;;1026.53;940.50;;;11.80;78.50;;;;;;4970184;28;20035;-67
2022/06/16 03:25:13;;;;;;;1024.70;939.53;;;11.80;78.20;;;;;;4956539;28;20050;-67
2022/06/16 03:27:38;;;;;;;1041.90;951.40;;;11.80;77.80;;;;;;4968048;28;20042;-67
2022/06/16 03:30:04;;;;;;;1004.87;919.60;;;11.80;77.90;;;;;;4984551;28;20053;-67
2022/06/16 03:32:30;;;;;;;1022.50;939.78;;;11.90;78.50;;;;;;4978508;28;20503;-67
2022/06/16 03:34:56;;;;;;;1003.70;916.77;;;11.90;78.90;;;;;;4982947;28;20132;-67
2022/06/16 03:37:23;;;;;;;999.43;916.90;;;11.90;78.80;;;;;;4939856;28;20121;-67
2022/06/16 03:39:49;;;;;;;1052.50;962.70;;;12.00;78.60;;;;;;4969979;28;20050;-67
2022/06/16 03:42:15;;;;;;;1025.87;942.67;;;12.00;78.70;;;;;;4975382;28;20418;-67
2022/06/16 03:44:41;;;;;;;1045.47;956.30;;;12.10;79.10;;;;;;4985435;28;20081;-67
2022/06/16 03:47:06;;;;;;;1021.13;934.30;;;12.10;79.10;;;;;;4984476;28;20078;-67
2022/06/16 03:49:32;;;;;;;1006.97;917.20;;;12.20;79.10;;;;;;4971999;28;20462;-67
2022/06/16 03:51:58;;;;;;;1010.47;920.40;;;12.20;78.70;;;;;;4969435;28;20034;-67
2022/06/16 03:54:23;;;;;;;1038.27;948.60;;;12.30;78.80;;;;;;4983678;28;20500;-67
2022/06/16 03:56:49;;;;;;;1028.27;940.03;;;12.40;78.70;;;;;;4971820;28;20049;-67
2022/06/16 03:59:15;;;;;;;1024.80;937.60;;;12.50;79.30;;;;;;4982070;28;20038;-67
2022/06/16 04:01:40;;;;;;;1028.17;938.83;;;12.50;78.70;;;;;;4985506;28;20127;-66
2022/06/16 04:04:07;;;;;;;1045.57;952.83;;;12.60;78.50;;;;;;4979388;28;20804;-67
2022/06/16 04:06:35;;;;;;;1044.35;951.17;;;12.60;79.00;;;;;;4966028;28;20457;-67
2022/06/16 04:09:03;;;;;;;1067.93;970.17;;;12.70;78.80;;;;;;4995913;28;20052;-67
2022/06/16 04:11:29;;;;;;;1047.50;955.22;;;12.70;78.80;;;;;;4986060;28;20838;-67
2022/06/16 04:14:08;;;;;;;1042.10;951.47;;;12.80;78.70;;;;;;4981270;28;20074;-67
2022/06/16 04:16:40;;;;;;;1030.18;943.03;;;12.80;78.60;;;;;;4975706;28;20046;-67
2022/06/16 04:19:07;;;;;;;1050.90;959.92;;;12.90;78.50;;;;;;4983018;28;20145;-67
2022/06/16 04:21:37;;;;;;;1060.90;967.00;;;13.00;78.50;;;;;;4999746;28;20125;-67
2022/06/16 04:24:03;;;;;;;1046.93;955.70;;;13.00;78.40;;;;;;4969755;28;20477;-67
2022/06/16 04:26:28;;;;;;;1047.07;955.40;;;13.00;78.30;;;;;;4964227;28;20132;-67
2022/06/16 04:28:54;;;;;;;1047.70;958.73;;;13.10;78.30;;;;;;4999594;28;20046;-67
2022/06/16 04:31:20;;;;;;;1022.57;934.70;;;13.10;78.20;;;;;;4980829;28;20061;-67
2022/06/16 04:33:46;;;;;;;1046.13;950.37;;;13.20;78.00;;;;;;4988019;28;20499;-67
2022/06/16 04:36:13;;;;;;;1060.00;962.80;;;13.20;78.40;;;;;;4979374;28;20045;-67
2022/06/16 04:38:39;;;;;;;1059.77;961.60;;;13.20;78.60;;;;;;4985148;28;20042;-67
2022/06/16 04:41:05;;;;;;;1053.37;963.23;;;13.20;78.40;;;;;;4984283;28;20412;-67
2022/06/16 04:43:31;;;;;;;1041.93;950.13;;;13.20;78.00;;;;;;4986717;28;20034;-67
2022/06/16 04:45:58;;;;;;;1043.67;952.73;;;13.30;77.80;;;;;;4967142;28;20034;-67
2022/06/16 04:48:25;;;;;;;1018.13;930.33;;;13.40;77.60;;;;;;4982138;28;20312;-67
2022/06/16 04:50:50;;;;;;;1049.57;961.33;;;13.40;77.30;;;;;;4983868;28;20308;-67
2022/06/16 04:53:16;;;;;;;1045.87;955.57;;;13.50;77.00;;;;;;4984353;28;20744;-67
2022/06/16 04:55:42;;;;;;;1049.90;957.90;;;13.50;76.90;;;;;;4967892;28;20042;-67
2022/06/16 04:58:08;;;;;;;1048.17;958.43;;;13.60;76.70;;;;;;4970671;28;20509;-67
2022/06/16 05:00:34;;;;;;;1057.80;967.67;;;13.80;76.70;;;;;;4976315;28;20133;-67
2022/06/16 05:03:01;;;;;;;1061.53;971.67;;;14.00;76.60;;;;;;4982770;28;20038;-67
2022/06/16 05:05:27;;;;;;;1066.37;974.27;;;14.70;76.20;;;;;;4983630;28;20657;-67
2022/06/16 05:07:53;;;;;;;1088.40;991.73;;;15.50;74.20;;;;;;4982847;28;20302;-67
2022/06/16 05:10:19;;;;;;;1076.70;981.03;;;16.10;72.30;;;;;;4984478;28;20316;-67
2022/06/16 05:12:44;;;;;;;1072.27;975.73;;;17.10;69.90;;;;;;4969812;28;20376;-67
2022/06/16 05:15:10;;;;;;;1066.77;968.40;;;17.80;66.30;;;;;;4982250;28;20038;-67
2022/06/16 05:17:36;;;;;;;1065.30;970.53;;;18.70;65.10;;;;;;4985788;28;20042;-67
2022/06/16 05:20:03;;;;;;;1047.93;956.63;;;18.90;62.60;;;;;;4967791;28;20044;-67
2022/06/16 05:22:29;;;;;;;1083.10;983.90;;;19.10;61.70;;;;;;4974947;28;20057;-68
2022/06/16 05:24:54;;;;;;;1058.10;966.23;;;18.80;61.50;;;;;;4974698;28;20651;-68
2022/06/16 05:27:21;;;;;;;1068.57;973.67;;;18.90;62.90;;;;;;4982919;28;20085;-68
2022/06/16 05:29:47;;;;;;;1107.23;999.90;;;19.10;61.20;;;;;;4983025;28;20451;-68
2022/06/16 05:32:12;;;;;;;1054.40;963.33;;;19.40;60.20;;;;;;4967696;28;20359;-68
2022/06/16 05:34:38;;;;;;;1048.73;955.90;;;19.60;59.00;;;;;;4985020;28;20313;-67
2022/06/16 05:37:04;;;;;;;1065.67;968.97;;;20.10;57.80;;;;;;4983422;28;20400;-68
2022/06/16 05:39:30;;;;;;;1061.97;972.60;;;20.50;57.00;;;;;;4969813;28;20046;-67
2022/06/16 05:41:56;;;;;;;1044.43;955.23;;;21.00;56.20;;;;;;4984685;28;20347;-67
2022/06/16 05:44:22;;;;;;;1035.27;946.70;;;21.50;55.50;;;;;;4984879;28;20058;-67
2022/06/16 05:46:47;;;;;;;1052.13;962.53;;;21.90;54.10;;;;;;4986753;28;20049;-67
2022/06/16 05:49:15;;;;;;;1035.27;948.93;;;22.10;53.40;;;;;;4986219;28;20039;-67
2022/06/16 05:51:41;;;;;;;1042.70;954.13;;;22.40;53.30;;;;;;4969604;28;20100;-68
2022/06/16 05:54:08;;;;;;;1091.37;995.90;;;22.70;52.60;;;;;;4985777;28;20441;-68
2022/06/16 05:56:34;;;;;;;1076.83;983.03;;;22.50;51.40;;;;;;4986434;28;20739;-68
2022/06/16 05:59:00;;;;;;;1048.13;955.77;;;22.60;51.80;;;;;;4957312;28;20316;-68
2022/06/16 06:01:25;;;;;;;1043.13;952.50;;;22.80;51.90;;;;;;4968757;28;20309;-67
2022/06/16 06:03:51;;;;;;;1019.90;934.17;;;23.10;51.60;;;;;;4974214;28;20042;-68
2022/06/16 06:06:17;;;;;;;1021.93;935.63;;;23.20;50.80;;;;;;4984392;28;20046;-68
2022/06/16 06:17:17;;;;;;;994.53;908.75;;;23.60;49.20;;;;;;4963208;28;20065;-68
2022/06/16 06:19:43;;;;;;;1016.87;930.93;;;23.90;49.10;;;;;;4986206;28;20038;-68
2022/06/16 06:22:15;;;;;;;1044.13;956.67;;;24.20;48.00;;;;;;4969412;28;20042;-68
2022/06/16 06:24:44;;;;;;;990.33;908.73;;;24.40;47.60;;;;;;4984650;28;20478;-68
2022/06/16 06:27:16;;;;;;;980.90;899.20;;;24.40;47.50;;;;;;4986428;28;20494;-68
2022/06/16 06:29:43;;;;;;;971.50;891.97;;;24.50;47.10;;;;;;4984168;28;20103;-68
2022/06/16 06:32:10;;;;;;;966.13;888.33;;;24.40;46.90;;;;;;4978271;28;20662;-68
2022/06/16 06:34:36;;;;;;;936.00;864.27;;;24.50;46.20;;;;;;4983740;28;20392;-68
2022/06/16 06:37:02;;;;;;;986.90;908.50;;;24.40;46.50;;;;;;4985674;28;20034;-68
2022/06/16 06:39:28;;;;;;;970.53;891.83;;;24.40;46.60;;;;;;4966877;28;20563;-68
2022/06/16 06:41:54;;;;;;;977.10;897.03;;;24.30;46.30;;;;;;4967668;28;20125;-68
2022/06/16 06:44:19;;;;;;;1000.30;919.07;;;24.20;46.80;;;;;;4967576;28;20224;-68
2022/06/16 06:46:45;;;;;;;976.83;899.37;;;24.20;46.90;;;;;;4985960;28;20053;-68
2022/06/16 06:49:11;;;;;;;918.10;843.63;;;24.10;46.70;;;;;;4985221;28;20046;-68
2022/06/16 06:51:37;;;;;;;927.63;857.47;;;23.90;47.60;;;;;;4952465;28;20495;-68
2022/06/16 06:54:03;;;;;;;936.40;863.77;;;23.70;47.50;;;;;;4968827;28;20468;-68
2022/06/16 06:56:30;;;;;;;950.80;879.53;;;23.40;47.00;;;;;;4975797;28;20046;-68
2022/06/16 06:58:58;;;;;;;1000.70;920.93;;;23.20;47.30;;;;;;4968093;28;20101;-68
2022/06/16 07:01:24;;;;;;;911.47;842.80;;;23.00;47.70;;;;;;4982231;28;20074;-68
2022/06/16 07:03:50;;;;;;;925.13;856.37;;;22.80;47.30;;;;;;4992331;28;20435;-68
2022/06/16 07:06:17;;;;;;;915.00;847.77;;;22.40;47.80;;;;;;4967308;28;20058;-68
2022/06/16 07:08:44;;;;;;;930.53;863.27;;;22.20;48.90;;;;;;4967319;28;20125;-68
2022/06/16 07:11:09;;;;;;;896.17;828.90;;;21.90;48.70;;;;;;4974895;28;20491;-68
2022/06/16 07:13:36;;;;;;;891.60;828.03;;;21.70;49.50;;;;;;4970534;28;20573;-68
2022/06/16 07:16:02;;;;;;;917.33;849.93;;;21.60;49.80;;;;;;4986746;28;20075;-68
2022/06/16 07:18:28;;;;;;;917.83;851.70;;;21.50;50.50;;;;;;4970259;28;20039;-69
2022/06/16 07:20:54;;;;;;;875.40;812.83;;;21.30;50.60;;;;;;4969697;28;20070;-68
2022/06/16 07:23:20;;;;;;;907.97;841.73;;;21.10;50.30;;;;;;4970544;28;20047;-68
2022/06/16 07:25:48;;;;;;;914.90;847.07;;;20.90;50.40;;;;;;4973281;28;20045;-68
2022/06/16 07:28:14;;;;;;;897.67;832.80;;;20.70;51.00;;;;;;4987550;28;20514;-68
2022/06/16 07:30:41;;;;;;;912.50;844.43;;;20.50;51.50;;;;;;4964790;28;20038;-68
2022/06/16 07:33:07;;;;;;;901.67;837.30;;;20.40;51.60;;;;;;4986891;28;20054;-68
2022/06/16 07:35:33;;;;;;;951.50;879.77;;;20.30;51.90;;;;;;4987547;28;20042;-68
2022/06/16 07:37:59;;;;;;;908.63;842.17;;;20.20;51.30;;;;;;4970589;28;20046;-68
2022/06/16 07:40:25;;;;;;;934.93;866.70;;;20.10;51.70;;;;;;4955788;28;20038;-68
2022/06/16 07:42:56;;;;;;;837.30;779.13;;;20.10;52.10;;;;;;4969687;28;20044;-69
2022/06/16 07:45:23;;;;;;;906.47;840.63;;;20.00;51.00;;;;;;4986622;28;20133;-69
2022/06/16 07:47:50;;;;;;;919.13;854.23;;;20.00;51.90;;;;;;4987259;28;20038;-68
2022/06/16 07:50:16;;;;;;;863.47;801.33;;;20.10;51.80;;;;;;4970546;28;21234;-68
2022/06/16 07:52:42;;;;;;;874.10;813.47;;;20.20;51.80;;;;;;4986587;28;20053;-68
2022/06/16 07:55:09;;;;;;;865.77;805.37;;;20.20;51.40;;;;;;4970079;28;20038;-68
2022/06/16 07:57:44;;;;;;;903.63;839.53;;;20.30;51.50;;;;;;4986437;28;20127;-68
2022/06/16 08:00:13;;;;;;;829.00;770.67;;;20.40;51.00;;;;;;4985784;28;20109;-68
2022/06/16 08:02:39;;;;;;;874.07;813.30;;;20.50;49.60;;;;;;4970573;28;20101;-68
2022/06/16 08:05:06;;;;;;;846.13;787.33;;;20.60;49.30;;;;;;4985360;28;20165;-68
2022/06/16 08:07:32;;;;;;;826.63;767.97;;;20.70;49.10;;;;;;4986577;28;20209;-68
2022/06/16 08:09:58;;;;;;;843.50;786.43;;;20.70;49.00;;;;;;4969709;28;20473;-68
2022/06/16 08:12:24;;;;;;;897.53;836.97;;;20.80;47.90;;;;;;4986736;28;20042;-68
2022/06/16 08:14:50;;;;;;;867.50;808.03;;;20.90;48.10;;;;;;4969665;28;20108;-68
2022/06/16 08:17:27;;;;;;;882.93;823.07;;;21.10;49.00;;;;;;4971006;28;20117;-68
2022/06/16 08:19:53;;;;;;;857.97;799.37;;;21.30;48.00;;;;;;4985680;28;20117;-68
2022/06/16 08:22:19;;;;;;;815.77;759.90;;;21.50;48.30;;;;;;4969367;28;20077;-68
2022/06/16 08:24:47;;;;;;;792.53;739.77;;;21.70;47.70;;;;;;4983506;28;20042;-68
2022/06/16 08:27:14;;;;;;;886.53;824.57;;;21.80;46.30;;;;;;4983002;28;20153;-68
2022/06/16 08:29:42;;;;;;;848.40;790.47;;;21.70;47.80;;;;;;4982815;28;20463;-68
2022/06/16 08:32:09;;;;;;;851.63;790.97;;;21.80;48.10;;;;;;4970555;28;20495;-68
2022/06/16 08:34:34;;;;;;;874.43;814.33;;;21.80;47.90;;;;;;4970197;28;20040;-68
2022/06/16 08:37:00;;;;;;;875.70;816.23;;;21.90;48.40;;;;;;4971034;28;20140;-68
2022/06/16 08:39:26;;;;;;;895.03;832.03;;;22.00;48.10;;;;;;4984559;28;20049;-68
2022/06/16 08:42:15;;;;;;;849.87;793.30;;;22.10;47.00;;;;;;4981154;28;20498;-68
2022/06/16 08:44:47;;;;;;;874.40;813.97;;;22.10;46.80;;;;;;4986605;28;20038;-68
2022/06/16 08:47:27;;;;;;;875.50;814.80;;;22.10;46.30;;;;;;4985354;28;20046;-68
2022/06/16 08:50:23;;;;;;;856.13;797.20;;;22.10;47.00;;;;;;4986487;28;20053;-68
2022/06/16 08:53:07;;;;;;;852.90;793.03;;;22.10;47.30;;;;;;4975296;28;20056;-68
2022/06/16 08:55:43;;;;;;;857.83;799.63;;;22.10;47.70;;;;;;4970431;28;20065;-69
2022/06/16 08:58:38;;;;;;;840.13;783.73;;;22.30;47.90;;;;;;4986659;28;20093;-69
2022/06/16 09:01:12;;;;;;;871.30;810.27;;;22.30;46.80;;;;;;4969479;28;20076;-69
2022/06/16 09:03:43;;;;;;;876.00;815.33;;;22.40;47.10;;;;;;4960754;28;20055;-69
2022/06/16 09:06:32;;;;;;;871.70;810.60;;;22.50;47.30;;;;;;4949093;28;20055;-69
2022/06/16 09:09:06;;;;;;;850.10;792.30;;;22.60;46.30;;;;;;4954581;28;20460;-69
2022/06/16 09:11:37;;;;;;;885.63;822.53;;;22.70;46.50;;;;;;4952384;28;20055;-69
2022/06/16 09:17:34;;;;;;;888.17;826.83;;;22.60;47.90;;;;;;4975317;28;20451;-68
2022/06/16 09:20:12;;;;;;;832.43;774.83;;;22.70;47.00;;;;;;4950402;28;20051;-68
2022/06/16 09:23:03;;;;;;;881.53;820.87;;;22.80;46.50;;;;;;4933288;29;20470;-68
2022/06/16 09:25:40;;;;;;;864.30;801.73;;;22.80;46.20;;;;;;4966656;28;20047;-68
2022/06/16 09:28:31;;;;;;;934.73;866.37;;;22.60;47.20;;;;;;4965660;28;20051;-68
2022/06/16 09:31:01;;;;;;;854.23;794.53;;;22.50;47.70;;;;;;4965431;28;20105;-68
2022/06/16 09:33:35;;;;;;;853.80;795.73;;;22.50;47.90;;;;;;4966463;28;20043;-68
2022/06/16 09:36:15;;;;;;;845.77;788.73;;;22.50;47.80;;;;;;4950404;28;20051;-68
2022/06/16 09:39:03;;;;;;;927.77;860.33;;;22.40;48.00;;;;;;4958102;28;20042;-68
2022/06/16 09:44:36;;;;;;;845.33;786.80;;;22.60;47.80;;;;;;4965696;28;20051;-69
2022/06/16 09:47:07;;;;;;;921.37;852.03;;;22.70;46.90;;;;;;4966328;28;20523;-68
2022/06/16 09:49:43;;;;;;;923.10;853.43;;;22.80;47.40;;;;;;4959213;28;20046;-68
2022/06/16 09:52:22;;;;;;;863.33;802.80;;;22.80;48.30;;;;;;4965504;28;20102;-68
2022/06/16 09:54:55;;;;;;;861.63;799.77;;;22.80;47.70;;;;;;4966890;28;20455;-69
2022/06/16 09:57:36;;;;;;;911.40;844.93;;;22.70;47.90;;;;;;4966935;28;20109;-69
2022/06/16 10:00:13;;;;;;;859.70;796.87;;;22.80;48.50;;;;;;4966024;28;20166;-68
2022/06/16 10:02:58;;;;;;;823.67;766.87;;;22.90;46.80;;;;;;4967853;28;20062;-68
2022/06/16 10:05:43;;;;;;;854.30;795.83;;;22.90;46.10;;;;;;4986347;28;20050;-68
2022/06/16 10:08:38;;;;;;;863.55;803.95;;;23.00;46.30;;;;;;4957790;28;20070;-69
2022/06/16 10:11:35;;;;;;;874.80;813.05;;;22.90;48.10;;;;;;4985335;28;20050;-69
2022/06/16 10:14:11;;;;;;;857.07;799.63;;;22.90;48.00;;;;;;4974837;28;20050;-69
2022/06/16 10:17:02;;;;;;;864.10;802.60;;;23.00;46.90;;;;;;4986204;28;20125;-69
2022/06/16 10:19:34;;;;;;;887.27;823.03;;;23.30;47.00;;;;;;4968021;28;20045;-69
2022/06/16 10:22:02;;;;;;;875.40;811.50;;;23.50;46.10;;;;;;4972600;28;20082;-69
2022/06/16 10:24:42;;;;;;;860.07;798.33;;;23.60;47.30;;;;;;4982259;28;20453;-69
2022/06/16 10:27:10;;;;;;;824.90;768.83;;;23.80;46.90;;;;;;4981644;28;20046;-68
2022/06/16 10:29:37;;;;;;;887.33;825.17;;;23.90;46.00;;;;;;4983988;28;20042;-68
2022/06/16 10:32:10;;;;;;;819.83;763.93;;;23.90;46.40;;;;;;4984792;28;20050;-68
2022/06/16 10:34:41;;;;;;;854.70;790.87;;;24.10;45.70;;;;;;4968241;28;20474;-68
2022/06/16 10:37:23;;;;;;;821.97;766.93;;;24.30;44.70;;;;;;4969519;28;20046;-68
2022/06/16 10:40:12;;;;;;;794.60;742.37;;;24.30;45.20;;;;;;4979392;28;20054;-68
2022/06/16 10:42:45;;;;;;;846.97;786.23;;;24.40;44.50;;;;;;4980671;28;20129;-69
2022/06/16 10:45:31;;;;;;;856.80;796.40;;;24.50;45.50;;;;;;4986205;28;20042;-69
2022/06/16 10:48:07;;;;;;;843.60;782.20;;;24.60;44.90;;;;;;4987096;28;20053;-69
2022/06/16 10:50:49;;;;;;;849.20;788.23;;;24.60;44.80;;;;;;4985493;28;20558;-69
2022/06/16 10:53:31;;;;;;;832.00;772.00;;;24.60;44.10;;;;;;4986565;28;20105;-69
2022/06/16 10:56:02;;;;;;;857.50;796.10;;;24.90;44.50;;;;;;4985133;28;20038;-69
2022/06/16 10:58:32;;;;;;;863.17;803.03;;;25.00;44.10;;;;;;4984515;28;20038;-69
2022/06/16 11:01:06;;;;;;;829.27;772.07;;;25.10;44.20;;;;;;4984596;28;20507;-69
2022/06/16 11:03:42;;;;;;;845.57;786.57;;;25.30;43.20;;;;;;4982863;28;20300;-69
2022/06/16 11:06:10;;;;;;;812.97;755.80;;;25.40;42.80;;;;;;4986383;28;20046;-69
2022/06/16 11:08:45;;;;;;;790.47;734.63;;;25.40;42.30;;;;;;4985696;28;20512;-69
2022/06/16 11:11:11;;;;;;;850.75;788.40;;;25.40;41.50;;;;;;4987552;28;20149;-69
2022/06/16 11:13:53;;;;;;;830.70;774.23;;;25.40;43.40;;;;;;4954921;28;20348;-69
2022/06/16 11:16:30;;;;;;;804.53;748.77;;;25.50;42.80;;;;;;4987551;28;20047;-69
2022/06/16 11:19:00;;;;;;;837.50;777.53;;;25.60;42.50;;;;;;4967197;28;20034;-69
2022/06/16 11:21:30;;;;;;;809.23;750.60;;;25.50;42.80;;;;;;4986046;28;20078;-69
2022/06/16 11:24:00;;;;;;;811.93;755.57;;;25.50;42.20;;;;;;4988551;28;20042;-69
2022/06/16 11:26:42;;;;;;;789.37;734.13;;;25.50;41.50;;;;;;4967224;28;20051;-69
2022/06/16 11:29:10;;;;;;;842.77;783.73;;;25.40;41.20;;;;;;4976534;28;20085;-69
2022/06/16 11:31:44;;;;;;;823.97;766.60;;;25.10;42.50;;;;;;4977671;28;20562;-69
2022/06/16 11:34:20;;;;;;;788.70;733.17;;;25.10;43.10;;;;;;4983668;28;20073;-69
2022/06/16 11:37:08;;;;;;;796.10;743.07;;;25.20;42.50;;;;;;4983971;28;20507;-69
2022/06/16 11:39:49;;;;;;;791.63;738.00;;;25.30;41.50;;;;;;4976875;28;20043;-69
2022/06/16 11:42:56;;;;;;;819.30;758.97;;;25.20;41.90;;;;;;4993008;28;20091;-69
2022/06/16 11:45:34;;;;;;;850.10;790.97;;;25.20;42.10;;;;;;4976483;28;20069;-69
2022/06/16 11:48:14;;;;;;;833.53;775.97;;;25.30;42.70;;;;;;4977993;28;20550;-69
2022/06/16 11:51:18;;;;;;;837.40;776.37;;;25.50;42.80;;;;;;4978723;28;20452;-69
2022/06/16 11:54:03;;;;;;;845.90;786.17;;;25.70;42.80;;;;;;4976653;28;20546;-69
2022/06/16 11:56:41;;;;;;;903.83;831.45;;;26.00;42.00;;;;;;4981690;28;20082;-69
2022/06/16 11:59:20;;;;;;;880.77;816.80;;;26.30;41.60;;;;;;4976671;28;20043;-69
2022/06/16 12:01:57;;;;;;;839.80;778.97;;;26.10;41.60;;;;;;4980496;28;20073;-69
2022/06/16 12:05:04;;;;;;;838.50;779.87;;;25.70;42.60;;;;;;4980971;28;20129;-69
2022/06/16 12:07:35;;;;;;;839.33;781.23;;;25.40;43.20;;;;;;4952523;28;20138;-69
2022/06/16 12:10:31;;;;;;;852.37;791.03;;;25.50;43.20;;;;;;4979927;28;20046;-69
2022/06/16 12:13:10;;;;;;;855.95;795.65;;;25.60;43.30;;;;;;4976440;28;20129;-69
2022/06/16 12:15:49;;;;;;;893.83;828.53;;;25.80;42.30;;;;;;4983082;28;20141;-69
2022/06/16 12:18:35;;;;;;;853.07;789.80;;;25.80;42.10;;;;;;4984610;28;20110;-69
2022/06/16 12:21:25;;;;;;;795.20;740.90;;;26.00;43.40;;;;;;4975684;28;20491;-69
2022/06/16 12:24:18;;;;;;;855.67;795.60;;;26.10;42.20;;;;;;5001248;28;20379;-69
2022/06/16 12:27:15;;;;;;;813.90;754.97;;;26.50;41.70;;;;;;4964616;28;20043;-69
2022/06/16 12:29:52;;;;;;;866.17;801.80;;;26.40;41.30;;;;;;4962495;28;20140;-69
2022/06/16 12:32:37;;;;;;;850.10;788.93;;;26.00;41.50;;;;;;4982191;28;20057;-69
2022/06/16 12:35:33;;;;;;;846.97;787.80;;;25.60;42.00;;;;;;4995255;28;20414;-69
2022/06/16 12:38:08;;;;;;;819.97;762.67;;;25.40;44.00;;;;;;4978853;28;20038;-69
2022/06/16 12:40:53;;;;;;;873.07;810.07;;;25.50;42.90;;;;;;4981108;28;20403;-69
2022/06/16 12:43:26;;;;;;;847.13;786.17;;;25.60;42.90;;;;;;4979923;28;20094;-69
2022/06/16 12:46:05;;;;;;;859.20;796.13;;;25.80;43.50;;;;;;4978018;28;20046;-69
2022/06/16 12:48:44;;;;;;;795.87;740.07;;;25.70;41.90;;;;;;4975180;28;20056;-69
2022/06/16 12:51:15;;;;;;;859.90;797.40;;;25.50;43.70;;;;;;4994017;28;20054;-69